sensor_id;sensor_type;location;lat;lon;timestamp;pressure;altitude;pressure_sealevel;temperature
74321;BMP280;62738;45.772;4.804;2022-11-15T00:00:55;99512.38;;;14.94
74321;BMP280;62738;45.772;4.804;2022-11-15T00:03:24;99514.19;;;14.89
74321;BMP280;62738;45.772;4.804;2022-11-15T00:05:51;99516.66;;;14.95
74321;BMP280;62738;45.772;4.804;2022-11-15T00:08:18;99514.88;;;15.11
74321;BMP280;62738;45.772;4.804;2022-11-15T00:10:56;99500.69;;;15.18
74321;BMP280;62738;45.772;4.804;2022-11-15T00:13:22;99498.28;;;14.92
74321;BMP280;62738;45.772;4.804;2022-11-15T00:15:49;99501.41;;;14.86
74321;BMP280;62738;45.772;4.804;2022-11-15T00:18:16;99501.31;;;14.96
74321;BMP280;62738;45.772;4.804;2022-11-15T00:20:43;99495.63;;;14.94
74321;BMP280;62738;45.772;4.804;2022-11-15T00:23:09;99492.28;;;14.85
74321;BMP280;62738;45.772;4.804;2022-11-15T00:25:36;99489.78;;;14.89
74321;BMP280;62738;45.772;4.804;2022-11-15T00:28:03;99492.28;;;14.85
74321;BMP280;62738;45.772;4.804;2022-11-15T00:30:30;99493.66;;;14.84
74321;BMP280;62738;45.772;4.804;2022-11-15T00:32:56;99497.78;;;14.83
74321;BMP280;62738;45.772;4.804;2022-11-15T00:35:27;99499.88;;;14.95
74321;BMP280;62738;45.772;4.804;2022-11-15T00:37:53;99494.63;;;14.89
74321;BMP280;62738;45.772;4.804;2022-11-15T00:40:20;99486.72;;;14.85
74321;BMP280;62738;45.772;4.804;2022-11-15T00:42:47;99471.13;;;15.15
74321;BMP280;62738;45.772;4.804;2022-11-15T00:45:13;99471.63;;;15.12
74321;BMP280;62738;45.772;4.804;2022-11-15T00:47:40;99459.97;;;15.15
74321;BMP280;62738;45.772;4.804;2022-11-15T00:50:06;99465.75;;;14.96
74321;BMP280;62738;45.772;4.804;2022-11-15T00:52:39;99458.59;;;14.93
74321;BMP280;62738;45.772;4.804;2022-11-15T00:55:06;99456.63;;;14.84
74321;BMP280;62738;45.772;4.804;2022-11-15T00:57:32;99461.25;;;14.91
74321;BMP280;62738;45.772;4.804;2022-11-15T00:59:59;99468.84;;;14.79
74321;BMP280;62738;45.772;4.804;2022-11-15T01:02:25;99475.38;;;14.72
74321;BMP280;62738;45.772;4.804;2022-11-15T01:04:52;99468.84;;;14.79
74321;BMP280;62738;45.772;4.804;2022-11-15T01:07:18;99457.25;;;14.94
74321;BMP280;62738;45.772;4.804;2022-11-15T01:09:45;99456.53;;;15.05
74321;BMP280;62738;45.772;4.804;2022-11-15T01:12:12;99450.53;;;14.87
74321;BMP280;62738;45.772;4.804;2022-11-15T01:14:38;99449.03;;;14.75
74321;BMP280;62738;45.772;4.804;2022-11-15T01:17:04;99446.78;;;14.83
74321;BMP280;62738;45.772;4.804;2022-11-15T01:19:31;99442.50;;;14.82
74321;BMP280;62738;45.772;4.804;2022-11-15T01:21:58;99442.66;;;14.84
74321;BMP280;62738;45.772;4.804;2022-11-15T01:24:24;99439.13;;;14.83
74321;BMP280;62738;45.772;4.804;2022-11-15T01:26:51;99445.00;;;14.66
74321;BMP280;62738;45.772;4.804;2022-11-15T01:29:17;99438.97;;;14.81
74321;BMP280;62738;45.772;4.804;2022-11-15T01:31:44;99432.25;;;14.63
74321;BMP280;62738;45.772;4.804;2022-11-15T01:34:10;99429.41;;;14.84
74321;BMP280;62738;45.772;4.804;2022-11-15T01:36:37;99429.41;;;14.84
74321;BMP280;62738;45.772;4.804;2022-11-15T01:39:03;99427.94;;;14.83
74321;BMP280;62738;45.772;4.804;2022-11-15T01:41:32;99427.41;;;14.75
74321;BMP280;62738;45.772;4.804;2022-11-15T01:47:28;99412.06;;;14.53
74321;BMP280;62738;45.772;4.804;2022-11-15T01:52:25;99410.06;;;14.44
74321;BMP280;62738;45.772;4.804;2022-11-15T01:54:58;99401.97;;;14.48
74321;BMP280;62738;45.772;4.804;2022-11-15T01:57:27;99399.91;;;14.49
74321;BMP280;62738;45.772;4.804;2022-11-15T01:59:54;99393.09;;;14.52
74321;BMP280;62738;45.772;4.804;2022-11-15T02:02:21;99383.41;;;14.53
74321;BMP280;62738;45.772;4.804;2022-11-15T02:04:48;99369.84;;;14.59
74321;BMP280;62738;45.772;4.804;2022-11-15T02:07:17;99355.09;;;14.46
74321;BMP280;62738;45.772;4.804;2022-11-15T02:09:45;99350.44;;;14.61
74321;BMP280;62738;45.772;4.804;2022-11-15T02:12:15;99356.22;;;14.53
74321;BMP280;62738;45.772;4.804;2022-11-15T02:14:43;99360.16;;;14.60
74321;BMP280;62738;45.772;4.804;2022-11-15T02:28:39;99352.56;;;14.51
74321;BMP280;62738;45.772;4.804;2022-11-15T02:31:17;99343.81;;;14.44
74321;BMP280;62738;45.772;4.804;2022-11-15T02:34:11;99338.91;;;14.66
74321;BMP280;62738;45.772;4.804;2022-11-15T02:36:41;99329.72;;;14.87
74321;BMP280;62738;45.772;4.804;2022-11-15T02:41:52;99330.91;;;14.61
74321;BMP280;62738;45.772;4.804;2022-11-15T02:47:00;99331.50;;;14.71
74321;BMP280;62738;45.772;4.804;2022-11-15T02:49:46;99336.34;;;14.59
74321;BMP280;62738;45.772;4.804;2022-11-15T02:52:17;99333.69;;;14.61
74321;BMP280;62738;45.772;4.804;2022-11-15T02:54:55;99324.28;;;14.89
74321;BMP280;62738;45.772;4.804;2022-11-15T02:57:39;99321.84;;;14.95
74321;BMP280;62738;45.772;4.804;2022-11-15T03:00:10;99326.44;;;14.79
74321;BMP280;62738;45.772;4.804;2022-11-15T03:11:03;99313.78;;;14.66
74321;BMP280;62738;45.772;4.804;2022-11-15T03:19:44;99307.84;;;14.72
74321;BMP280;62738;45.772;4.804;2022-11-15T03:22:15;99294.84;;;14.65
74321;BMP280;62738;45.772;4.804;2022-11-15T03:24:45;99284.88;;;14.62
74321;BMP280;62738;45.772;4.804;2022-11-15T03:27:17;99288.16;;;14.58
74321;BMP280;62738;45.772;4.804;2022-11-15T03:29:51;99270.50;;;14.32
74321;BMP280;62738;45.772;4.804;2022-11-15T03:32:23;99268.97;;;14.53
74321;BMP280;62738;45.772;4.804;2022-11-15T03:34:58;99264.00;;;14.63
74321;BMP280;62738;45.772;4.804;2022-11-15T03:37:32;99264.72;;;14.52
74321;BMP280;62738;45.772;4.804;2022-11-15T03:40:00;99263.16;;;14.49
74321;BMP280;62738;45.772;4.804;2022-11-15T03:42:35;99271.75;;;14.53
74321;BMP280;62738;45.772;4.804;2022-11-15T03:45:17;99269.09;;;14.55
74321;BMP280;62738;45.772;4.804;2022-11-15T03:47:49;99278.59;;;14.61
74321;BMP280;62738;45.772;4.804;2022-11-15T03:50:20;99269.72;;;14.76
74321;BMP280;62738;45.772;4.804;2022-11-15T03:52:48;99264.50;;;14.59
74321;BMP280;62738;45.772;4.804;2022-11-15T03:55:19;99262.53;;;14.50
74321;BMP280;62738;45.772;4.804;2022-11-15T03:57:48;99249.25;;;14.39
74321;BMP280;62738;45.772;4.804;2022-11-15T04:00:16;99247.47;;;14.43
74321;BMP280;62738;45.772;4.804;2022-11-15T04:02:42;99254.50;;;14.44
74321;BMP280;62738;45.772;4.804;2022-11-15T04:05:09;99251.47;;;14.40
74321;BMP280;62738;45.772;4.804;2022-11-15T04:07:36;99239.59;;;14.52
74321;BMP280;62738;45.772;4.804;2022-11-15T04:10:03;99234.16;;;14.54
74321;BMP280;62738;45.772;4.804;2022-11-15T04:12:32;99242.59;;;14.44
74321;BMP280;62738;45.772;4.804;2022-11-15T04:15:17;99238.41;;;14.55
74321;BMP280;62738;45.772;4.804;2022-11-15T04:17:46;99231.50;;;14.56
74321;BMP280;62738;45.772;4.804;2022-11-15T04:20:21;99236.91;;;14.42
74321;BMP280;62738;45.772;4.804;2022-11-15T04:23:10;99231.19;;;14.40
74321;BMP280;62738;45.772;4.804;2022-11-15T04:25:59;99234.72;;;14.40
74321;BMP280;62738;45.772;4.804;2022-11-15T04:28:27;99225.25;;;14.45
74321;BMP280;62738;45.772;4.804;2022-11-15T04:30:54;99216.41;;;14.37
74321;BMP280;62738;45.772;4.804;2022-11-15T04:33:21;99214.22;;;14.36
74321;BMP280;62738;45.772;4.804;2022-11-15T04:35:49;99222.75;;;14.50
74321;BMP280;62738;45.772;4.804;2022-11-15T04:38:34;99229.38;;;14.44
74321;BMP280;62738;45.772;4.804;2022-11-15T04:41:02;99225.75;;;14.42
74321;BMP280;62738;45.772;4.804;2022-11-15T04:43:29;99208.16;;;14.51
74321;BMP280;62738;45.772;4.804;2022-11-15T04:45:56;99211.56;;;14.50
74321;BMP280;62738;45.772;4.804;2022-11-15T04:48:23;99208.88;;;14.40
74321;BMP280;62738;45.772;4.804;2022-11-15T04:50:49;99210.34;;;14.53
74321;BMP280;62738;45.772;4.804;2022-11-15T04:53:16;99206.97;;;14.54
74321;BMP280;62738;45.772;4.804;2022-11-15T04:55:46;99207.91;;;14.47
74321;BMP280;62738;45.772;4.804;2022-11-15T04:58:12;99195.41;;;14.36
74321;BMP280;62738;45.772;4.804;2022-11-15T05:00:39;99207.66;;;14.20
74321;BMP280;62738;45.772;4.804;2022-11-15T05:03:06;99200.72;;;14.21
74321;BMP280;62738;45.772;4.804;2022-11-15T05:05:51;99200.44;;;14.05
74321;BMP280;62738;45.772;4.804;2022-11-15T05:08:18;99196.44;;;14.08
74321;BMP280;62738;45.772;4.804;2022-11-15T05:10:44;99193.31;;;14.14
74321;BMP280;62738;45.772;4.804;2022-11-15T05:13:11;99200.56;;;14.07
74321;BMP280;62738;45.772;4.804;2022-11-15T05:15:37;99189.31;;;13.84
74321;BMP280;62738;45.772;4.804;2022-11-15T05:18:04;99182.84;;;14.02
74321;BMP280;62738;45.772;4.804;2022-11-15T05:20:31;99180.16;;;13.93
74321;BMP280;62738;45.772;4.804;2022-11-15T05:22:57;99174.72;;;13.95
74321;BMP280;62738;45.772;4.804;2022-11-15T05:25:24;99180.91;;;13.93
74321;BMP280;62738;45.772;4.804;2022-11-15T05:27:51;99191.47;;;14.07
74321;BMP280;62738;45.772;4.804;2022-11-15T05:30:18;99191.81;;;13.89
74321;BMP280;62738;45.772;4.804;2022-11-15T05:32:44;99186.00;;;14.09
74321;BMP280;62738;45.772;4.804;2022-11-15T05:35:30;99178.78;;;14.27
74321;BMP280;62738;45.772;4.804;2022-11-15T05:37:58;99176.53;;;14.02
74321;BMP280;62738;45.772;4.804;2022-11-15T05:40:24;99173.38;;;13.96
74321;BMP280;62738;45.772;4.804;2022-11-15T05:42:51;99166.75;;;14.01
74321;BMP280;62738;45.772;4.804;2022-11-15T05:45:18;99155.69;;;14.15
74321;BMP280;62738;45.772;4.804;2022-11-15T05:47:52;99157.13;;;14.04
74321;BMP280;62738;45.772;4.804;2022-11-15T05:50:20;99157.66;;;14.00
74321;BMP280;62738;45.772;4.804;2022-11-15T05:52:47;99151.34;;;14.00
74321;BMP280;62738;45.772;4.804;2022-11-15T05:55:14;99147.25;;;14.24
74321;BMP280;62738;45.772;4.804;2022-11-15T05:57:41;99151.84;;;14.20
74321;BMP280;62738;45.772;4.804;2022-11-15T06:00:08;99155.50;;;14.34
74321;BMP280;62738;45.772;4.804;2022-11-15T06:02:35;99160.13;;;14.29
74321;BMP280;62738;45.772;4.804;2022-11-15T06:05:02;99162.16;;;14.40
74321;BMP280;62738;45.772;4.804;2022-11-15T06:07:29;99148.44;;;14.44
74321;BMP280;62738;45.772;4.804;2022-11-15T06:09:57;99155.84;;;14.28
74321;BMP280;62738;45.772;4.804;2022-11-15T06:12:23;99148.94;;;14.29
74321;BMP280;62738;45.772;4.804;2022-11-15T06:14:50;99143.97;;;14.28
74321;BMP280;62738;45.772;4.804;2022-11-15T06:17:16;99134.75;;;14.37
74321;BMP280;62738;45.772;4.804;2022-11-15T06:19:43;99138.28;;;14.26
74321;BMP280;62738;45.772;4.804;2022-11-15T06:22:09;99132.81;;;14.28
74321;BMP280;62738;45.772;4.804;2022-11-15T06:24:36;99142.63;;;14.17
74321;BMP280;62738;45.772;4.804;2022-11-15T06:27:03;99125.44;;;14.56
74321;BMP280;62738;45.772;4.804;2022-11-15T06:29:29;99129.66;;;14.45
74321;BMP280;62738;45.772;4.804;2022-11-15T06:31:55;99121.66;;;14.28
74321;BMP280;62738;45.772;4.804;2022-11-15T06:34:22;99127.13;;;14.49
74321;BMP280;62738;45.772;4.804;2022-11-15T06:36:49;99116.78;;;14.17
74321;BMP280;62738;45.772;4.804;2022-11-15T06:39:15;99116.81;;;14.28
74321;BMP280;62738;45.772;4.804;2022-11-15T06:41:42;99116.19;;;14.18
74321;BMP280;62738;45.772;4.804;2022-11-15T06:44:08;99124.56;;;14.18
74321;BMP280;62738;45.772;4.804;2022-11-15T06:46:35;99131.81;;;14.12
74321;BMP280;62738;45.772;4.804;2022-11-15T06:49:02;99124.53;;;13.95
74321;BMP280;62738;45.772;4.804;2022-11-15T06:51:34;99118.38;;;14.20
74321;BMP280;62738;45.772;4.804;2022-11-15T06:54:01;99125.75;;;14.15
74321;BMP280;62738;45.772;4.804;2022-11-15T06:56:28;99121.00;;;14.06
74321;BMP280;62738;45.772;4.804;2022-11-15T06:58:55;99110.72;;;14.20
74321;BMP280;62738;45.772;4.804;2022-11-15T07:01:21;99112.69;;;14.29
74321;BMP280;62738;45.772;4.804;2022-11-15T07:03:48;99110.13;;;14.33
74321;BMP280;62738;45.772;4.804;2022-11-15T07:06:14;99102.09;;;14.39
74321;BMP280;62738;45.772;4.804;2022-11-15T07:08:41;99105.03;;;14.41
74321;BMP280;62738;45.772;4.804;2022-11-15T07:11:08;99109.66;;;14.25
74321;BMP280;62738;45.772;4.804;2022-11-15T07:13:36;99105.28;;;14.34
74321;BMP280;62738;45.772;4.804;2022-11-15T07:16:08;99102.69;;;14.15
74321;BMP280;62738;45.772;4.804;2022-11-15T07:18:36;99099.56;;;14.20
74321;BMP280;62738;45.772;4.804;2022-11-15T07:21:04;99106.22;;;14.50
74321;BMP280;62738;45.772;4.804;2022-11-15T07:23:31;99103.34;;;14.60
74321;BMP280;62738;45.772;4.804;2022-11-15T07:25:59;99097.03;;;14.48
74321;BMP280;62738;45.772;4.804;2022-11-15T07:28:26;99107.47;;;14.59
74321;BMP280;62738;45.772;4.804;2022-11-15T07:30:53;99100.41;;;14.58
74321;BMP280;62738;45.772;4.804;2022-11-15T07:33:20;99097.47;;;14.44
74321;BMP280;62738;45.772;4.804;2022-11-15T07:35:47;99093.31;;;14.80
74321;BMP280;62738;45.772;4.804;2022-11-15T07:38:17;99101.88;;;14.59
74321;BMP280;62738;45.772;4.804;2022-11-15T07:40:47;99105.56;;;14.86
74321;BMP280;62738;45.772;4.804;2022-11-15T07:43:13;99105.59;;;14.75
74321;BMP280;62738;45.772;4.804;2022-11-15T07:45:44;99104.03;;;14.72
74321;BMP280;62738;45.772;4.804;2022-11-15T07:48:11;99106.09;;;14.83
74321;BMP280;62738;45.772;4.804;2022-11-15T07:50:41;99119.13;;;15.04
74321;BMP280;62738;45.772;4.804;2022-11-15T07:53:09;99112.63;;;14.76
74321;BMP280;62738;45.772;4.804;2022-11-15T07:55:36;99116.31;;;15.04
74321;BMP280;62738;45.772;4.804;2022-11-15T07:58:05;99120.34;;;15.12
74321;BMP280;62738;45.772;4.804;2022-11-15T08:00:32;99118.50;;;15.17
74321;BMP280;62738;45.772;4.804;2022-11-15T08:03:04;99114.13;;;15.64
74321;BMP280;62738;45.772;4.804;2022-11-15T08:05:32;99110.94;;;15.56
74321;BMP280;62738;45.772;4.804;2022-11-15T08:07:59;99111.69;;;15.45
74321;BMP280;62738;45.772;4.804;2022-11-15T08:10:26;99114.53;;;15.33
74321;BMP280;62738;45.772;4.804;2022-11-15T08:13:01;99104.03;;;15.46
74321;BMP280;62738;45.772;4.804;2022-11-15T08:15:29;99110.19;;;15.30
74321;BMP280;62738;45.772;4.804;2022-11-15T08:17:57;99102.81;;;15.49
74321;BMP280;62738;45.772;4.804;2022-11-15T08:20:25;99103.09;;;15.41
74321;BMP280;62738;45.772;4.804;2022-11-15T08:22:52;99104.38;;;15.52
74321;BMP280;62738;45.772;4.804;2022-11-15T08:25:19;99105.13;;;15.66
74321;BMP280;62738;45.772;4.804;2022-11-15T08:27:45;99105.34;;;15.70
74321;BMP280;62738;45.772;4.804;2022-11-15T08:30:12;99097.94;;;15.74
74321;BMP280;62738;45.772;4.804;2022-11-15T08:32:39;99099.66;;;15.68
74321;BMP280;62738;45.772;4.804;2022-11-15T08:35:06;99095.13;;;15.74
74321;BMP280;62738;45.772;4.804;2022-11-15T08:37:33;99091.75;;;15.64
74321;BMP280;62738;45.772;4.804;2022-11-15T08:40:00;99084.44;;;15.71
74321;BMP280;62738;45.772;4.804;2022-11-15T08:42:27;99093.63;;;15.85
74321;BMP280;62738;45.772;4.804;2022-11-15T08:44:53;99086.09;;;15.76
74321;BMP280;62738;45.772;4.804;2022-11-15T08:47:20;99089.19;;;16.07
74321;BMP280;62738;45.772;4.804;2022-11-15T08:49:46;99088.03;;;15.60
74321;BMP280;62738;45.772;4.804;2022-11-15T08:52:14;99085.97;;;15.86
74321;BMP280;62738;45.772;4.804;2022-11-15T08:54:40;99072.69;;;16.00
74321;BMP280;62738;45.772;4.804;2022-11-15T08:57:07;99076.63;;;16.08
74321;BMP280;62738;45.772;4.804;2022-11-15T08:59:36;99069.81;;;16.11
74321;BMP280;62738;45.772;4.804;2022-11-15T09:02:03;99066.38;;;15.99
74321;BMP280;62738;45.772;4.804;2022-11-15T09:04:31;99063.34;;;15.95
74321;BMP280;62738;45.772;4.804;2022-11-15T09:06:57;99064.22;;;16.11
74321;BMP280;62738;45.772;4.804;2022-11-15T09:09:24;99056.66;;;16.28
74321;BMP280;62738;45.772;4.804;2022-11-15T09:11:51;99057.03;;;16.49
74321;BMP280;62738;45.772;4.804;2022-11-15T09:14:17;99056.84;;;16.32
74321;BMP280;62738;45.772;4.804;2022-11-15T09:16:44;99071.16;;;16.10
74321;BMP280;62738;45.772;4.804;2022-11-15T09:19:10;99064.09;;;16.23
74321;BMP280;62738;45.772;4.804;2022-11-15T09:21:37;99056.66;;;16.28
74321;BMP280;62738;45.772;4.804;2022-11-15T09:24:04;99055.72;;;16.09
74321;BMP280;62738;45.772;4.804;2022-11-15T09:26:30;99059.13;;;16.21
74321;BMP280;62738;45.772;4.804;2022-11-15T09:28:57;99057.28;;;16.12
74321;BMP280;62738;45.772;4.804;2022-11-15T09:31:24;99056.94;;;16.47
74321;BMP280;62738;45.772;4.804;2022-11-15T09:33:51;99047.53;;;16.27
74321;BMP280;62738;45.772;4.804;2022-11-15T09:36:18;99045.34;;;16.26
74321;BMP280;62738;45.772;4.804;2022-11-15T09:38:44;99051.88;;;16.30
74321;BMP280;62738;45.772;4.804;2022-11-15T09:49:02;99038.13;;;16.77
74321;BMP280;62738;45.772;4.804;2022-11-15T09:54:01;99044.56;;;16.66
74321;BMP280;62738;45.772;4.804;2022-11-15T09:56:50;99041.66;;;17.07
74321;BMP280;62738;45.772;4.804;2022-11-15T10:04:25;99028.56;;;17.27
74321;BMP280;62738;45.772;4.804;2022-11-15T10:09:54;99025.81;;;17.13
74321;BMP280;62738;45.772;4.804;2022-11-15T10:12:24;99021.59;;;16.83
74321;BMP280;62738;45.772;4.804;2022-11-15T10:15:00;99018.41;;;17.04
74321;BMP280;62738;45.772;4.804;2022-11-15T10:20:21;99009.91;;;17.02
74321;BMP280;62738;45.772;4.804;2022-11-15T10:22:53;99003.25;;;17.25
74321;BMP280;62738;45.772;4.804;2022-11-15T10:25:25;99006.09;;;17.11
74321;BMP280;62738;45.772;4.804;2022-11-15T10:28:17;99000.03;;;17.31
74321;BMP280;62738;45.772;4.804;2022-11-15T10:30:50;98997.66;;;17.25
74321;BMP280;62738;45.772;4.804;2022-11-15T10:35:47;98986.25;;;17.37
74321;BMP280;62738;45.772;4.804;2022-11-15T10:38:14;98983.00;;;17.27
74321;BMP280;62738;45.772;4.804;2022-11-15T10:40:41;98976.66;;;17.42
74321;BMP280;62738;45.772;4.804;2022-11-15T10:43:17;98961.75;;;17.37
74321;BMP280;62738;45.772;4.804;2022-11-15T10:45:45;98968.16;;;17.40
74321;BMP280;62738;45.772;4.804;2022-11-15T10:50:41;98962.03;;;17.59
74321;BMP280;62738;45.772;4.804;2022-11-15T10:53:17;98954.69;;;17.52
74321;BMP280;62738;45.772;4.804;2022-11-15T10:55:47;98941.75;;;17.45
74321;BMP280;62738;45.772;4.804;2022-11-15T11:01:14;98934.25;;;17.49
74321;BMP280;62738;45.772;4.804;2022-11-15T11:03:42;98934.16;;;17.16
74321;BMP280;62738;45.772;4.804;2022-11-15T11:06:15;98927.00;;;17.44
74321;BMP280;62738;45.772;4.804;2022-11-15T11:09:04;98930.63;;;17.47
74321;BMP280;62738;45.772;4.804;2022-11-15T11:11:48;98920.69;;;17.44
74321;BMP280;62738;45.772;4.804;2022-11-15T11:20:25;98894.66;;;17.75
74321;BMP280;62738;45.772;4.804;2022-11-15T11:23:03;98893.06;;;17.70
74321;BMP280;62738;45.772;4.804;2022-11-15T11:37:14;98857.03;;;17.80
74321;BMP280;62738;45.772;4.804;2022-11-15T11:39:59;98857.09;;;17.82
74321;BMP280;62738;45.772;4.804;2022-11-15T11:48:20;98851.91;;;17.58
74321;BMP280;62738;45.772;4.804;2022-11-15T11:50:47;98859.44;;;17.87
74321;BMP280;62738;45.772;4.804;2022-11-15T11:55:55;98839.81;;;17.72
74321;BMP280;62738;45.772;4.804;2022-11-15T11:58:35;98844.50;;;17.83
74321;BMP280;62738;45.772;4.804;2022-11-15T12:01:17;98835.38;;;17.82
74321;BMP280;62738;45.772;4.804;2022-11-15T12:04:05;98832.13;;;17.54
74321;BMP280;62738;45.772;4.804;2022-11-15T12:06:50;98827.13;;;17.86
74321;BMP280;62738;45.772;4.804;2022-11-15T12:12:09;98828.66;;;17.56
74321;BMP280;62738;45.772;4.804;2022-11-15T12:17:28;98815.88;;;17.86
74321;BMP280;62738;45.772;4.804;2022-11-15T12:20:15;98811.16;;;17.73
74321;BMP280;62738;45.772;4.804;2022-11-15T12:22:46;98812.03;;;17.60
74321;BMP280;62738;45.772;4.804;2022-11-15T12:25:21;98820.34;;;17.58
74321;BMP280;62738;45.772;4.804;2022-11-15T12:30:43;98808.91;;;17.70
74321;BMP280;62738;45.772;4.804;2022-11-15T12:36:01;98794.47;;;17.59
74321;BMP280;62738;45.772;4.804;2022-11-15T12:38:55;98797.75;;;17.54
74321;BMP280;62738;45.772;4.804;2022-11-15T12:41:24;98789.59;;;17.60
74321;BMP280;62738;45.772;4.804;2022-11-15T12:43:51;98791.22;;;17.65
74321;BMP280;62738;45.772;4.804;2022-11-15T12:46:19;98785.63;;;17.49
74321;BMP280;62738;45.772;4.804;2022-11-15T12:48:52;98789.66;;;17.62
74321;BMP280;62738;45.772;4.804;2022-11-15T12:59:57;98771.63;;;17.49
74321;BMP280;62738;45.772;4.804;2022-11-15T13:02:33;98758.28;;;17.32
74321;BMP280;62738;45.772;4.804;2022-11-15T13:13:03;98755.75;;;17.56
74321;BMP280;62738;45.772;4.804;2022-11-15T13:15:34;98751.84;;;17.63
74321;BMP280;62738;45.772;4.804;2022-11-15T13:20:49;98743.19;;;17.57
74321;BMP280;62738;45.772;4.804;2022-11-15T13:23:16;98727.78;;;17.76
74321;BMP280;62738;45.772;4.804;2022-11-15T13:28:24;98722.59;;;17.86
74321;BMP280;62738;45.772;4.804;2022-11-15T13:30:56;98719.72;;;17.66
74321;BMP280;62738;45.772;4.804;2022-11-15T13:36:01;98721.44;;;17.75
74321;BMP280;62738;45.772;4.804;2022-11-15T13:38:37;98719.81;;;17.68
74321;BMP280;62738;45.772;4.804;2022-11-15T13:43:43;98712.03;;;17.67
74321;BMP280;62738;45.772;4.804;2022-11-15T13:48:41;98700.88;;;17.51
74321;BMP280;62738;45.772;4.804;2022-11-15T13:51:22;98695.50;;;17.57
74321;BMP280;62738;45.772;4.804;2022-11-15T13:56:27;98688.53;;;17.58
74321;BMP280;62738;45.772;4.804;2022-11-15T13:58:55;98687.19;;;17.59
74321;BMP280;62738;45.772;4.804;2022-11-15T14:01:22;98683.25;;;17.48
74321;BMP280;62738;45.772;4.804;2022-11-15T14:03:57;98686.56;;;17.61
74321;BMP280;62738;45.772;4.804;2022-11-15T14:06:27;98690.31;;;17.67
74321;BMP280;62738;45.772;4.804;2022-11-15T14:09:29;98691.25;;;17.74
74321;BMP280;62738;45.772;4.804;2022-11-15T14:11:52;98687.44;;;17.65
74321;BMP280;62738;45.772;4.804;2022-11-15T14:14:24;98678.78;;;17.59
74321;BMP280;62738;45.772;4.804;2022-11-15T14:16:53;98683.63;;;17.76
74321;BMP280;62738;45.772;4.804;2022-11-15T14:22:09;98675.31;;;17.78
74321;BMP280;62738;45.772;4.804;2022-11-15T14:24:37;98675.16;;;17.56
74321;BMP280;62738;45.772;4.804;2022-11-15T14:29:42;98677.16;;;17.54
74321;BMP280;62738;45.772;4.804;2022-11-15T14:32:15;98676.34;;;17.51
74321;BMP280;62738;45.772;4.804;2022-11-15T14:34:42;98682.84;;;17.56
74321;BMP280;62738;45.772;4.804;2022-11-15T14:37:30;98677.72;;;17.68
74321;BMP280;62738;45.772;4.804;2022-11-15T14:40:03;98686.19;;;17.70
74321;BMP280;62738;45.772;4.804;2022-11-15T14:42:30;98671.53;;;17.72
74321;BMP280;62738;45.772;4.804;2022-11-15T14:44:57;98667.78;;;17.83
74321;BMP280;62738;45.772;4.804;2022-11-15T14:47:24;98659.75;;;17.75
74321;BMP280;62738;45.772;4.804;2022-11-15T14:49:50;98652.72;;;17.74
74321;BMP280;62738;45.772;4.804;2022-11-15T14:52:31;98647.94;;;17.59
74321;BMP280;62738;45.772;4.804;2022-11-15T14:55:09;98647.25;;;17.78
74321;BMP280;62738;45.772;4.804;2022-11-15T14:57:38;98649.19;;;17.56
74321;BMP280;62738;45.772;4.804;2022-11-15T15:00:05;98647.84;;;17.39
74321;BMP280;62738;45.772;4.804;2022-11-15T15:02:32;98638.31;;;17.64
74321;BMP280;62738;45.772;4.804;2022-11-15T15:04:58;98627.91;;;17.31
74321;BMP280;62738;45.772;4.804;2022-11-15T15:07:27;98644.50;;;17.80
74321;BMP280;62738;45.772;4.804;2022-11-15T15:09:54;98637.03;;;17.67
74321;BMP280;62738;45.772;4.804;2022-11-15T15:12:41;98638.06;;;17.58
74321;BMP280;62738;45.772;4.804;2022-11-15T15:15:31;98634.84;;;17.66
74321;BMP280;62738;45.772;4.804;2022-11-15T15:17:58;98631.34;;;17.47
74321;BMP280;62738;45.772;4.804;2022-11-15T15:20:25;98625.16;;;17.51
74321;BMP280;62738;45.772;4.804;2022-11-15T15:22:52;98629.00;;;17.42
74321;BMP280;62738;45.772;4.804;2022-11-15T15:25:33;98625.16;;;17.51
74321;BMP280;62738;45.772;4.804;2022-11-15T15:28:01;98617.66;;;17.38
74321;BMP280;62738;45.772;4.804;2022-11-15T15:30:30;98612.13;;;17.40
74321;BMP280;62738;45.772;4.804;2022-11-15T15:32:56;98615.53;;;17.56
74321;BMP280;62738;45.772;4.804;2022-11-15T15:35:23;98604.16;;;17.52
74321;BMP280;62738;45.772;4.804;2022-11-15T15:37:53;98606.97;;;17.52
74321;BMP280;62738;45.772;4.804;2022-11-15T15:40:22;98609.09;;;17.34
74321;BMP280;62738;45.772;4.804;2022-11-15T15:42:49;98605.63;;;17.18
74321;BMP280;62738;45.772;4.804;2022-11-15T15:45:17;98607.47;;;17.29
74321;BMP280;62738;45.772;4.804;2022-11-15T15:47:45;98600.69;;;17.34
74321;BMP280;62738;45.772;4.804;2022-11-15T15:50:31;98600.13;;;17.20
74321;BMP280;62738;45.772;4.804;2022-11-15T15:53:00;98596.28;;;17.29
74321;BMP280;62738;45.772;4.804;2022-11-15T15:55:27;98587.88;;;17.29
74321;BMP280;62738;45.772;4.804;2022-11-15T15:57:54;98571.56;;;17.05
74321;BMP280;62738;45.772;4.804;2022-11-15T16:00:22;98568.56;;;17.19
74321;BMP280;62738;45.772;4.804;2022-11-15T16:02:51;98574.25;;;17.03
74321;BMP280;62738;45.772;4.804;2022-11-15T16:05:18;98569.53;;;17.08
74321;BMP280;62738;45.772;4.804;2022-11-15T16:07:45;98566.25;;;16.96
74321;BMP280;62738;45.772;4.804;2022-11-15T16:10:23;98562.56;;;17.09
74321;BMP280;62738;45.772;4.804;2022-11-15T16:12:54;98561.44;;;16.98
74321;BMP280;62738;45.772;4.804;2022-11-15T16:15:22;98554.16;;;17.09
74321;BMP280;62738;45.772;4.804;2022-11-15T16:17:54;98549.13;;;17.05
74321;BMP280;62738;45.772;4.804;2022-11-15T16:20:40;98537.63;;;16.82
74321;BMP280;62738;45.772;4.804;2022-11-15T16:23:10;98537.81;;;16.86
74321;BMP280;62738;45.772;4.804;2022-11-15T16:25:53;98528.78;;;16.87
74321;BMP280;62738;45.772;4.804;2022-11-15T16:28:27;98526.63;;;17.03
74321;BMP280;62738;45.772;4.804;2022-11-15T16:31:07;98523.66;;;16.99
74321;BMP280;62738;45.772;4.804;2022-11-15T16:33:35;98513.78;;;17.16
74321;BMP280;62738;45.772;4.804;2022-11-15T16:36:04;98506.22;;;17.01
74321;BMP280;62738;45.772;4.804;2022-11-15T16:38:31;98509.72;;;17.19
74321;BMP280;62738;45.772;4.804;2022-11-15T16:40:58;98503.00;;;17.08
74321;BMP280;62738;45.772;4.804;2022-11-15T16:43:25;98507.44;;;16.96
74321;BMP280;62738;45.772;4.804;2022-11-15T16:45:52;98498.72;;;16.70